Aérodrome :
LOGIN :

S'inscrire | Disclaimer

   EN    FR    IT 

 










Légende :    VFR   VFR Marginal   IFR   IFR Intensif   IFR Très Intensif
Visi : 
Plafond : 
>= 8 km
>= 3000ft
5 à 8 km
1000 à 3000 ft
1500m à 5 km
500 à 1000 ft
800 à 1500m
200 à 500 ft
< 800m
< 200 ft
Symboles :   Orages  Brouillard  Fortes neiges  Fortes précipitations  Vent > 20 kt
SIGMETs :   Divers  Orages  Givrage  Turbulence  Onde Orograph.  Cendres Volcan.






- Altitude de l'aérodrome : 388 ft
- Code IATA : QYR


LFQB - Troyes Barberey

DERNIER METAR :
  • 130930Z AUTO 26020KT 9999 -DZ BKN038/// BKN046/// BKN056/// ///TCU 07/04 Q0984

METARs EXPIRÉS :
  • 130900Z AUTO 26022KT 9999 -RADZ SCT027/// BKN039/// BKN054/// ///TCU 07/04 Q0984
  • 130830Z AUTO 26023KT 9999 SCT028 SCT039 BKN046 07/04 Q0983
  • 130800Z AUTO 26024KT 9999 SCT027 BKN032 BKN044 07/03 Q0982
  • 130730Z AUTO 25023KT 9999 FEW027/// SCT032/// BKN043/// ///TCU 07/04 Q0981
  • 130700Z AUTO 25021KT 9999 FEW030 SCT040 BKN046 08/05 Q0980

TAF N/A



MET'MAP, la Météo Aéronautique d'un coup d'oeil ! - Copyright ORBIFLY Décembre 2007 - Disclaimer

ORBIFLY MET'MAP TEAM :

Programmation & Développement : Alexandra Zaïnal
Sur une idée originale de : Baudouin d'Aumeries
Assistance à la programmation : Marc-Olivier Méhu
Soutien technique & logistique : Manuel Goepfert

Contact : metmap@orbifly.com




SOURCES & CREDITS :

   NOAA